Latest Weather Observations for Trepell

IDQ60801

Issued at 6:02 am EST Monday 5 December 2016 (issued every 30 minutes, with the page automatically refreshed every 10 minutes)

About weather observations | Map of weather stations | Latest weather observations for QLD | Other Formats
Station Details ID: 037036 Name: TREPELL AIRPORT Lat: -21.84 Lon: 140.89 Height: 266.2 m
Data from the previous 72 hours. | See also: Recent months at Trepell
Date/Time
EST
Temp
°C
App
Temp
°C
Dew
Point
°C
Rel
Hum
%
Delta-T
°C
Wind Press
QNH
hPa
Press
MSL
hPa
Rain since
9am
mm
Dir  Spd
km/h
Gust
km/h
Spd
kts
Gust
kts
05/05:30am 26.7 25.0 10.0 35 9.4 NNW 9 11 5 6 1012.0 1009.9 0.0
05/05:00am 26.3 24.3 8.8 33 9.6 NNW 9 11 5 6 1011.7 1009.7 0.0
05/04:30am 26.4 24.8 8.8 33 9.7 NW 7 9 4 5 1011.3 1009.3 0.0
05/04:00am 26.5 24.6 8.9 33 9.7 NW 9 11 5 6 1011.0 1009.0 0.0
05/03:30am 26.8 25.7 8.3 31 10.1 S 4 7 2 4 1010.7 1008.6 0.0
05/03:00am 27.4 26.5 7.8 29 10.7 SW 2 6 1 3 1010.5 1008.4 0.0
05/02:30am 27.6 24.3 6.4 26 11.3 SW 13 15 7 8 1010.4 1008.3 0.0
05/02:00am 29.3 25.4 5.4 22 12.6 WSW 15 22 8 12 1010.3 1008.2 0.0
05/01:30am 28.5 24.6 5.4 23 12.1 NNW 15 17 8 9 1009.8 1007.7 0.0
05/01:00am 26.6 24.0 4.4 24 11.4 NNW 7 9 4 5 1009.9 1007.8 0.0
05/12:30am 27.7 25.3 5.3 24 11.7 NNW 7 9 4 5 1010.2 1008.1 0.0
05/12:00am 28.2 25.1 3.8 21 12.5 NW 9 9 5 5 1010.4 1008.3 0.0
 
Date/Time
EST
Temp
°C
App
Temp
°C
Dew
Point
°C
Rel
Hum
%
Delta-T
°C
Wind Press
QNH
hPa
Press
MSL
hPa
Rain since
9am
mm
Dir  Spd
km/h
Gust
km/h
Spd
kts
Gust
kts
04/11:30pm 30.3 27.1 4.9 20 13.4 NNW 11 13 6 7 1010.6 1008.5 0.0
04/11:00pm 30.0 27.3 3.9 19 13.5 NW 7 9 4 5 1010.8 1008.8 0.0
04/10:30pm 31.8 29.3 4.6 18 14.4 NNW 7 7 4 4 1010.8 1008.8 0.0
04/10:00pm 31.8 29.5 4.6 18 14.4 N 6 7 3 4 1010.7 1008.6 0.0
04/09:30pm 32.0 29.5 3.9 17 14.7 N 6 7 3 4 1010.5 1008.4 0.0
04/09:00pm 32.6 29.7 4.4 17 14.9 N 9 11 5 6 1010.6 1008.5 0.0
04/08:30pm 34.1 30.8 4.7 16 15.8 N 11 11 6 6 1010.3 1008.2 0.0
04/08:00pm 34.3 30.3 3.0 14 16.4 NNE 13 15 7 8 1010.0 1007.9 0.0
04/07:30pm 36.1 31.8 3.3 13 17.4 NNE 15 20 8 11 1009.7 1007.6 0.0
04/07:00pm 37.7 32.9 4.6 13 18.1 NNE 19 26 10 14 1009.3 1007.2 0.0
04/06:30pm 38.9 33.9 4.4 12 18.9 NNE 20 30 11 16 1008.8 1006.7 0.0
04/06:00pm 39.5 34.0 6.0 13 18.9 NNE 24 33 13 18 1008.6 1006.5 0.0
04/05:30pm 40.0 34.4 5.2 12 19.4 NNE 24 32 13 17 1008.5 1006.4 0.0
04/05:00pm 40.7 35.2 5.7 12 19.7 NNE 24 46 13 25 1008.5 1006.4 0.0
04/04:30pm 39.8 34.9 5.1 12 19.3 NNE 20 41 11 22 1008.6 1006.5 0.0
04/04:00pm 41.1 37.0 6.0 12 19.9 NNE 17 26 9 14 1008.7 1006.6 0.0
04/03:30pm 41.3 37.2 6.2 12 19.9 NNE 17 33 9 18 1009.0 1006.9 0.0
04/03:00pm 41.4 35.7 5.0 11 20.4 NNE 24 37 13 20 1009.4 1007.3 0.0
04/02:30pm 41.8 36.6 5.3 11 20.5 NE 22 33 12 18 1009.6 1007.5 0.0
04/02:00pm 42.0 37.1 4.1 10 21.0 NE 19 32 10 17 1009.7 1007.6 0.0
04/01:42pm 41.9 35.6 4.0 10 20.9 NNE 26 41 14 22 1009.9 1007.8 0.0
04/01:30pm 41.4 37.2 3.7 10 20.7 NE 15 24 8 13 1010.0 1007.9 0.0
04/01:00pm 41.8 37.6 4.0 10 20.9 NNE 15 28 8 15 1010.3 1008.2 0.0
04/12:30pm 41.0 36.5 7.1 13 19.5 N 20 33 11 18 1010.6 1008.5 0.0
04/12:00pm 40.6 36.6 6.8 13 19.3 N 17 28 9 15 1011.2 1009.2 0.0
04/11:30am 39.8 36.2 8.3 15 18.3 N 17 24 9 13 1011.7 1009.7 0.0
04/11:00am 39.7 36.0 10.1 17 17.7 N 20 33 11 18 1012.2 1010.1 0.0
04/10:30am 39.0 34.6 10.4 18 17.1 N 24 33 13 18 1012.4 1010.3 0.0
04/10:00am 37.7 32.6 9.3 18 16.6 N 26 37 14 20 1012.6 1010.5 0.0
04/09:30am 36.9 30.5 8.7 18 16.3 N 32 43 17 23 1012.8 1010.7 0.0
04/09:00am 36.3 30.8 9.0 19 15.8 N 28 39 15 21 1012.9 1010.8 0.0
04/08:30am 34.8 31.4 9.3 21 14.7 N 17 24 9 13 1013.0 1010.9 0.0
04/08:00am 33.2 29.3 9.3 23 13.7 N 20 26 11 14 1012.9 1010.8 0.0
04/07:30am 31.9 26.9 9.4 25 12.9 NNE 26 35 14 19 1012.6 1010.5 0.0
04/07:00am 30.4 26.7 11.4 31 11.1 NNE 22 28 12 15 1012.4 1010.3 0.0
04/06:30am 28.4 25.6 11.5 35 9.8 NNE 17 20 9 11 1012.0 1009.9 0.0
04/06:00am 27.8 25.5 10.5 34 9.9 NNE 13 17 7 9 1011.6 1009.6 0.0
04/05:30am 29.4 25.4 10.5 31 10.9 NNE 22 30 12 16 1011.3 1009.3 0.0
04/05:00am 26.3 24.6 8.3 32 9.8 N 7 9 4 5 1010.6 1008.5 0.0
04/04:30am 26.0 24.3 7.6 31 9.9 NNW 6 7 3 4 1010.3 1008.2 0.0
04/04:00am 27.3 25.4 7.7 29 10.7 N 7 7 4 4 1010.1 1008.0 0.0
04/03:30am 28.5 26.4 8.2 28 11.2 N 9 9 5 5 1009.9 1007.8 0.0
04/03:00am 28.1 26.0 8.4 29 10.9 NNE 9 11 5 6 1009.8 1007.7 0.0
04/02:30am 26.5 24.5 7.0 29 10.4 NNE 7 9 4 5 1009.8 1007.7 0.0
04/02:00am 27.5 25.3 7.9 29 10.7 NNE 9 9 5 5 1009.9 1007.8 0.0
04/01:30am 27.2 24.9 7.6 29 10.6 N 9 9 5 5 1010.2 1008.1 0.0
04/01:00am 27.9 25.9 7.2 27 11.2 N 7 9 4 5 1010.5 1008.4 0.0
04/12:30am 28.7 27.1 7.9 27 11.4 N 6 7 3 4 1010.8 1008.8 0.0
04/12:00am 28.7 26.9 7.3 26 11.6 NW 6 6 3 3 1010.9 1008.9 0.0
 
Date/Time
EST
Temp
°C
App
Temp
°C
Dew
Point
°C
Rel
Hum
%
Delta-T
°C
Wind Press
QNH
hPa
Press
MSL
hPa
Rain since
9am
mm
Dir  Spd
km/h
Gust
km/h
Spd
kts
Gust
kts
03/11:30pm 30.0 28.1 6.6 23 12.7 NW 6 6 3 3 1011.1 1009.1 0.0
03/11:00pm 31.9 30.0 7.5 22 13.5 NW 7 9 4 5 1011.2 1009.2 0.0
03/10:30pm 31.8 30.1 7.5 22 13.5 NW 6 7 3 4 1011.3 1009.3 0.0
03/10:00pm 32.5 30.2 7.4 21 13.9 NW 9 11 5 6 1011.3 1009.3 0.0
03/09:30pm 33.3 30.6 7.3 20 14.5 NW 11 11 6 6 1010.9 1008.9 0.0
03/09:00pm 34.2 31.7 8.0 20 14.8 NNW 11 13 6 7 1010.7 1008.6 0.0
03/08:30pm 34.0 31.8 7.9 20 14.7 N 9 11 5 6 1010.3 1008.2 0.0
03/08:00pm 34.5 31.8 7.5 19 15.2 N 11 13 6 7 1010.1 1008.0 0.0
03/07:30pm 35.3 32.2 7.4 18 15.7 NNE 13 15 7 8 1009.9 1007.8 0.0
03/07:00pm 37.1 32.6 7.1 16 17.0 NNE 20 24 11 13 1009.6 1007.5 0.0
03/06:30pm 38.2 33.7 6.0 14 18.0 NNE 19 24 10 13 1009.4 1007.3 0.0
03/06:00pm 38.9 33.9 6.6 14 18.3 NNE 22 28 12 15 1009.2 1007.1 0.0
03/05:30pm 39.2 34.0 5.7 13 18.7 NNE 22 32 12 17 1009.0 1006.9 0.0
03/05:00pm 39.8 34.4 6.2 13 19.0 NE 24 32 13 17 1008.9 1006.8 0.0
03/04:30pm 40.0 34.7 5.2 12 19.4 NNE 22 35 12 19 1008.9 1006.8 0.0
03/04:00pm 41.2 36.5 6.1 12 19.9 N 20 37 11 20 1008.9 1006.8 0.0
03/03:30pm 40.7 35.0 6.9 13 19.3 NNE 26 43 14 23 1008.9 1006.8 0.0
03/03:20pm 40.8 34.3 4.6 11 20.0 NNE 28 46 15 25 1008.9 1006.8 0.0
03/03:00pm 41.0 35.3 4.7 11 20.2 NE 24 39 13 21 1009.3 1007.2 0.0
03/02:30pm 41.1 36.0 6.0 12 19.9 NE 22 37 12 20 1009.6 1007.5 0.0
03/02:00pm 41.5 35.6 7.5 13 19.7 NNE 28 41 15 22 1009.9 1007.8 0.0
03/01:30pm 40.9 36.4 10.1 16 18.5 NNE 24 37 13 20 1010.3 1008.2 0.0
03/01:13pm 40.9 35.7 10.1 16 18.5 NNE 28 48 15 26 1010.4 1008.3 0.0
03/01:00pm 40.6 35.6 10.8 17 18.0 N 28 41 15 22 1010.8 1008.8 0.0
03/12:30pm 39.7 35.5 12.5 20 16.8 NNE 26 37 14 20 1011.2 1009.2 0.0
03/12:00pm 39.1 34.2 11.3 19 16.8 NNE 28 44 15 24 1011.5 1009.5 0.0
03/11:30am 38.8 33.2 10.2 18 17.0 NNE 30 43 16 23 1011.8 1009.8 0.0
03/11:00am 37.9 32.1 9.5 18 16.7 NNE 30 41 16 22 1012.0 1009.9 0.0
03/10:30am 38.0 32.8 10.4 19 16.4 N 28 41 15 22 1012.1 1010.0 0.0
03/10:00am 38.2 33.9 12.0 21 16.0 NNE 26 33 14 18 1012.1 1010.0 0.0
03/09:30am 36.6 33.6 10.7 21 15.4 NNE 17 24 9 13 1012.2 1010.1 0.0
03/09:00am 35.2 33.8 12.2 25 13.9 ENE 11 20 6 11 1012.3 1010.2 0.0
03/08:30am 33.0 31.6 12.1 28 12.5 E 11 15 6 8 1012.2 1010.1 0.0
03/08:00am 30.9 29.5 12.3 32 11.1 NE 11 15 6 8 1012.2 1010.1 0.0
03/07:30am 29.6 28.3 12.5 35 10.2 NNE 11 15 6 8 1011.8 1009.8 0.0
03/07:00am 28.1 27.3 12.8 38 9.1 NNW 9 17 5 9 1011.4 1009.4 0.0
03/06:30am 27.7 27.5 12.9 40 8.8 NW 6 9 3 5 1010.7 1008.6 0.0
03/06:00am 26.8 26.0 12.8 42 8.3 W 9 13 5 7 1010.3 1008.2 0.0
03/05:30am 27.0 25.5 11.9 39 8.8 SW 11 13 6 7 1009.7 1007.6 0.0
03/05:00am 27.7 26.0 12.5 39 9.0 WNW 13 17 7 9 1009.3 1007.2 0.0
03/04:30am 27.6 24.7 12.8 40 8.8 WNW 20 26 11 14 1008.8 1006.7 0.0
03/04:00am 27.3 23.4 13.3 42 8.4 NW 26 32 14 17 1009.2 1007.1 0.0
03/03:30am 27.2 23.7 13.5 42 8.2 NNW 24 32 13 17 1009.6 1007.5 0.0
03/03:00am 26.6 22.7 14.4 47 7.4 NNW 28 35 15 19 1010.5 1008.4 0.0
03/02:30am 25.9 21.6 15.3 52 6.5 N 32 44 17 24 1011.1 1009.1 0.0
03/02:00am 24.3 19.9 17.5 66 4.3 N 37 52 20 28 1012.4 1010.3 0.0
03/01:30am 23.3 18.4 18.2 73 3.2 N 41 57 22 31 1012.8 1010.7 0.0
03/01:01am 23.4 18.6 18.3 73 3.2 N 41 59 22 32 1013.5 1011.4 0.0
03/01:00am 23.4 18.2 18.3 73 3.2 N 43 59 23 32 1013.3 1011.2 0.0
03/12:56am 23.4 18.6 18.5 74 3.1 N 41 59 22 32 1013.0 1010.9 0.0
03/12:30am 23.6 19.2 18.5 73 3.3 NNE 39 50 21 27 1013.9 1011.8 0.0
03/12:12am 24.0 18.8 18.4 71 3.6 NNE 43 61 23 33 1013.5 1011.4 0.0
03/12:00am 24.2 18.4 18.2 69 3.8 NNE 46 57 25 31 1012.8 1010.7 0.0
 
Date/Time
EST
Temp
°C
App
Temp
°C
Dew
Point
°C
Rel
Hum
%
Delta-T
°C
Wind Press
QNH
hPa
Press
MSL
hPa
Rain since
9am
mm
Dir  Spd
km/h
Gust
km/h
Spd
kts
Gust
kts
02/11:30pm 25.0 19.2 18.4 66 4.2 NNE 46 70 25 38 1012.7 1010.6 0.0
02/11:00pm 26.7 21.2 15.7 51 6.8 N 39 57 21 31 1012.3 1010.2 0.0
02/10:38pm 25.6 20.7 17.3 60 5.2 N 39 57 21 31 1011.5 1009.5 0.0
02/10:30pm 25.5 19.4 17.7 62 4.9 N 46 61 25 33 1011.4 1009.4 0.0
02/10:15pm 25.6 19.9 17.3 60 5.2 NNE 43 61 23 33 1011.3 1009.3 0.0
02/10:10pm 25.1 19.9 16.5 59 5.3 NNE 39 52 21 28 1011.3 1009.3 0.0
02/10:00pm 26.1 20.8 16.4 55 6.0 NE 39 52 21 28 1011.1 1009.1 0.0
02/09:54pm 26.4 21.1 15.4 50 6.8 NNE 37 48 20 26 1010.9 1008.9 0.0
02/09:42pm 28.9 23.8 13.6 39 9.2 N 33 56 18 30 1010.1 1008.0 0.0
02/09:30pm 30.1 25.3 14.6 39 9.5 N 33 44 18 24 1009.9 1007.8 0.0
02/09:00pm 27.4 21.4 15.4 48 7.4 NE 41 54 22 29 1010.6 1008.5 0.0
02/08:45pm 27.9 20.4 15.9 48 7.5 NE 50 69 27 37 1011.0 1009.0 0.0
02/08:37pm 28.8 22.1 15.0 43 8.5 NE 44 69 24 37 1010.3 1008.2 0.0
02/08:30pm 31.4 25.4 12.2 30 11.4 NE 35 56 19 30 1010.0 1007.9 0.0
02/08:22pm 34.0 30.2 9.9 23 14.0 NNE 20 43 11 23 1009.0 1006.9 0.0
02/08:00pm 35.3 32.0 9.7 21 14.9 WSW 17 22 9 12 1008.3 1006.2 0.0
02/07:30pm 35.8 30.6 10.1 21 15.1 W 28 33 15 18 1008.4 1006.3 0.0
02/07:00pm 36.7 31.2 9.3 19 16.0 W 28 43 15 23 1008.3 1006.2 0.0
02/06:49pm 37.4 32.8 8.2 17 16.8 WSW 22 39 12 21 1007.9 1005.9 0.0
02/06:30pm 38.9 37.4 6.6 14 18.3 SW 4 9 2 5 1007.5 1005.5 0.0
02/06:00pm 39.6 37.0 6.1 13 18.9 W 9 13 5 7 1007.2 1005.1 0.0
02/05:30pm 40.9 37.9 5.9 12 19.8 W 11 17 6 9 1006.9 1004.8 0.0
02/05:00pm 41.3 37.1 7.4 13 19.6 WNW 19 32 10 17 1006.7 1004.6 0.0
02/04:30pm 41.9 37.2 7.8 13 19.9 NW 22 32 12 17 1006.6 1004.5 0.0
02/04:00pm 41.4 38.1 6.3 12 20.0 W 13 19 7 10 1007.1 1005.0 0.0
02/03:30pm 41.8 39.2 7.8 13 19.8 NNW 11 22 6 12 1007.4 1005.4 0.0
02/03:00pm 41.5 38.5 7.5 13 19.7 N 13 22 7 12 1007.9 1005.9 0.0
02/02:30pm 41.9 37.6 7.8 13 19.9 NNE 20 28 11 15 1008.2 1006.1 0.0
02/02:00pm 41.1 38.2 8.3 14 19.2 NE 13 28 7 15 1008.6 1006.5 0.0
02/01:30pm 40.3 37.8 6.6 13 19.2 SW 9 20 5 11 1009.0 1006.9 0.0
02/01:00pm 40.6 38.4 7.9 14 19.0 NNW 9 20 5 11 1009.4 1007.3 0.0
02/12:30pm 40.5 38.7 7.8 14 18.9 W 7 13 4 7 1009.9 1007.8 0.0
02/12:00pm 40.0 37.7 10.3 17 17.8 NW 13 22 7 12 1010.3 1008.2 0.0
02/11:30am 39.4 36.4 10.7 18 17.3 NNW 17 28 9 15 1010.6 1008.5 0.0
02/11:00am 39.2 36.5 12.9 21 16.3 NNW 19 28 10 15 1010.9 1008.9 0.0
02/10:30am 38.4 35.7 12.9 22 15.8 NNW 19 32 10 17 1011.2 1009.2 0.0
02/10:00am 37.2 34.4 12.6 23 15.1 NNW 19 26 10 14 1011.2 1009.2 0.0
02/09:30am 36.9 34.4 13.6 24 14.5 NNW 19 28 10 15 1011.1 1009.1 0.0
02/09:00am 36.1 33.6 14.1 26 13.7 NNW 20 28 11 15 1011.1 1009.1 0.0
02/08:30am 35.1 33.3 15.4 30 12.5 NNW 19 28 10 15 1011.1 1009.1 0.0
02/08:00am 33.0 32.5 16.8 38 10.4 N 15 19 8 10 1011.0 1009.0 0.0
02/07:30am 31.3 30.5 16.1 40 9.6 N 15 19 8 10 1010.7 1008.6 0.0
02/07:00am 29.9 28.1 15.6 42 8.9 NNE 19 24 10 13 1010.4 1008.3 0.0
02/06:30am 28.1 24.2 14.3 42 8.4 NNE 28 39 15 21 1010.1 1008.0 0.0
02/06:23am 27.9 24.4 13.4 40 8.7 NNE 24 39 13 21 1010.1 1008.0 0.0

Other Formats:

Comma delimited format used in spreadsheet applications
http://www.bom.gov.au/fwo/IDQ60801/IDQ60801.94338.axf

JavaScript Object Notation format (JSON) in row-major order
http://www.bom.gov.au/fwo/IDQ60801/IDQ60801.94338.json